sensor_id;sensor_type;location;lat;lon;timestamp;temperature;humidity
53962;DHT22;39868;53.398;6.564;2022-11-15T00:01:56;11.10;77.40
53962;DHT22;39868;53.398;6.564;2022-11-15T00:04:42;11.10;77.40
53962;DHT22;39868;53.398;6.564;2022-11-15T00:07:28;11.10;77.40
53962;DHT22;39868;53.398;6.564;2022-11-15T00:10:34;11.10;77.40
53962;DHT22;39868;53.398;6.564;2022-11-15T00:13:20;11.10;77.40
53962;DHT22;39868;53.398;6.564;2022-11-15T00:16:06;11.10;77.40
53962;DHT22;39868;53.398;6.564;2022-11-15T00:18:52;11.10;77.40
53962;DHT22;39868;53.398;6.564;2022-11-15T00:21:38;11.10;77.40
53962;DHT22;39868;53.398;6.564;2022-11-15T00:24:24;11.10;77.40
53962;DHT22;39868;53.398;6.564;2022-11-15T00:27:10;11.10;77.50
53962;DHT22;39868;53.398;6.564;2022-11-15T00:29:56;11.10;77.50
53962;DHT22;39868;53.398;6.564;2022-11-15T00:32:42;11.10;77.50
53962;DHT22;39868;53.398;6.564;2022-11-15T00:35:30;11.10;77.50
53962;DHT22;39868;53.398;6.564;2022-11-15T00:38:17;11.10;77.50
53962;DHT22;39868;53.398;6.564;2022-11-15T00:41:04;11.10;77.50
53962;DHT22;39868;53.398;6.564;2022-11-15T00:43:54;11.10;77.40
53962;DHT22;39868;53.398;6.564;2022-11-15T00:46:40;11.10;77.40
53962;DHT22;39868;53.398;6.564;2022-11-15T00:49:26;11.10;77.30
53962;DHT22;39868;53.398;6.564;2022-11-15T00:52:12;11.10;77.30
53962;DHT22;39868;53.398;6.564;2022-11-15T00:54:58;11.10;77.20
53962;DHT22;39868;53.398;6.564;2022-11-15T00:57:45;11.00;77.00
53962;DHT22;39868;53.398;6.564;2022-11-15T01:00:32;11.00;76.90
53962;DHT22;39868;53.398;6.564;2022-11-15T01:03:18;11.00;76.80
53962;DHT22;39868;53.398;6.564;2022-11-15T01:06:05;10.90;76.70
53962;DHT22;39868;53.398;6.564;2022-11-15T01:08:51;10.80;76.60
53962;DHT22;39868;53.398;6.564;2022-11-15T01:11:37;10.80;76.60
53962;DHT22;39868;53.398;6.564;2022-11-15T01:14:23;10.70;76.50
53962;DHT22;39868;53.398;6.564;2022-11-15T01:17:10;10.70;76.50
53962;DHT22;39868;53.398;6.564;2022-11-15T01:19:56;10.60;76.50
53962;DHT22;39868;53.398;6.564;2022-11-15T01:22:42;10.50;76.50
53962;DHT22;39868;53.398;6.564;2022-11-15T01:25:28;10.50;76.70
53962;DHT22;39868;53.398;6.564;2022-11-15T01:28:14;10.50;76.80
53962;DHT22;39868;53.398;6.564;2022-11-15T01:31:05;10.40;76.90
53962;DHT22;39868;53.398;6.564;2022-11-15T01:33:52;10.40;77.00
53962;DHT22;39868;53.398;6.564;2022-11-15T01:36:38;10.30;77.10
53962;DHT22;39868;53.398;6.564;2022-11-15T01:39:24;10.40;77.30
53962;DHT22;39868;53.398;6.564;2022-11-15T01:42:14;10.40;77.30
53962;DHT22;39868;53.398;6.564;2022-11-15T01:45:00;10.40;77.40
53962;DHT22;39868;53.398;6.564;2022-11-15T01:47:50;10.40;77.40
53962;DHT22;39868;53.398;6.564;2022-11-15T01:50:37;10.30;77.30
53962;DHT22;39868;53.398;6.564;2022-11-15T01:53:24;10.30;77.30
53962;DHT22;39868;53.398;6.564;2022-11-15T01:56:14;10.30;77.20
53962;DHT22;39868;53.398;6.564;2022-11-15T01:59:03;10.30;77.20
53962;DHT22;39868;53.398;6.564;2022-11-15T02:01:50;10.20;77.10
53962;DHT22;39868;53.398;6.564;2022-11-15T02:04:41;10.20;77.10
53962;DHT22;39868;53.398;6.564;2022-11-15T02:07:28;10.20;77.20
53962;DHT22;39868;53.398;6.564;2022-11-15T02:10:22;10.20;77.80
53962;DHT22;39868;53.398;6.564;2022-11-15T02:13:09;10.10;77.30
53962;DHT22;39868;53.398;6.564;2022-11-15T02:34:47;10.20;78.00
53962;DHT22;39868;53.398;6.564;2022-11-15T02:37:55;10.20;78.00
53962;DHT22;39868;53.398;6.564;2022-11-15T02:40:52;10.30;78.10
53962;DHT22;39868;53.398;6.564;2022-11-15T02:46:50;10.30;78.10
53962;DHT22;39868;53.398;6.564;2022-11-15T02:50:00;10.30;78.10
53962;DHT22;39868;53.398;6.564;2022-11-15T02:52:51;10.40;78.70
53962;DHT22;39868;53.398;6.564;2022-11-15T02:55:44;10.40;78.10
53962;DHT22;39868;53.398;6.564;2022-11-15T02:59:03;10.40;78.10
53962;DHT22;39868;53.398;6.564;2022-11-15T03:04:56;10.50;78.00
53962;DHT22;39868;53.398;6.564;2022-11-15T03:13:52;10.50;77.80
53962;DHT22;39868;53.398;6.564;2022-11-15T03:19:44;10.60;77.80
53962;DHT22;39868;53.398;6.564;2022-11-15T03:22:38;10.60;77.80
53962;DHT22;39868;53.398;6.564;2022-11-15T03:25:26;10.60;77.80
53962;DHT22;39868;53.398;6.564;2022-11-15T03:28:20;10.60;77.80
53962;DHT22;39868;53.398;6.564;2022-11-15T03:31:09;10.60;77.80
53962;DHT22;39868;53.398;6.564;2022-11-15T03:34:44;10.60;77.70
53962;DHT22;39868;53.398;6.564;2022-11-15T03:40:33;10.60;77.80
53962;DHT22;39868;53.398;6.564;2022-11-15T03:43:30;10.70;77.80
53962;DHT22;39868;53.398;6.564;2022-11-15T03:46:36;10.70;77.80
53962;DHT22;39868;53.398;6.564;2022-11-15T03:49:29;10.70;77.80
53962;DHT22;39868;53.398;6.564;2022-11-15T03:52:21;10.70;78.40
53962;DHT22;39868;53.398;6.564;2022-11-15T03:55:11;10.70;77.80
53962;DHT22;39868;53.398;6.564;2022-11-15T03:57:59;10.70;77.80
53962;DHT22;39868;53.398;6.564;2022-11-15T04:00:46;10.80;77.80
53962;DHT22;39868;53.398;6.564;2022-11-15T04:03:32;10.80;77.80
53962;DHT22;39868;53.398;6.564;2022-11-15T04:06:19;10.80;77.80
53962;DHT22;39868;53.398;6.564;2022-11-15T04:09:04;10.80;77.80
53962;DHT22;39868;53.398;6.564;2022-11-15T04:11:51;10.80;77.90
53962;DHT22;39868;53.398;6.564;2022-11-15T04:14:36;10.90;77.90
53962;DHT22;39868;53.398;6.564;2022-11-15T04:17:22;10.80;78.40
53962;DHT22;39868;53.398;6.564;2022-11-15T04:23:23;10.90;77.90
53962;DHT22;39868;53.398;6.564;2022-11-15T04:26:28;10.90;77.90
53962;DHT22;39868;53.398;6.564;2022-11-15T04:29:14;10.90;78.00
53962;DHT22;39868;53.398;6.564;2022-11-15T04:32:18;10.90;77.90
53962;DHT22;39868;53.398;6.564;2022-11-15T04:35:04;10.90;77.90
53962;DHT22;39868;53.398;6.564;2022-11-15T04:37:51;10.90;78.00
53962;DHT22;39868;53.398;6.564;2022-11-15T04:40:37;11.00;78.10
53962;DHT22;39868;53.398;6.564;2022-11-15T04:43:24;11.00;78.10
53962;DHT22;39868;53.398;6.564;2022-11-15T04:46:10;11.00;78.10
53962;DHT22;39868;53.398;6.564;2022-11-15T04:48:56;11.00;78.10
53962;DHT22;39868;53.398;6.564;2022-11-15T04:51:44;11.00;78.70
53962;DHT22;39868;53.398;6.564;2022-11-15T04:54:30;11.00;78.10
53962;DHT22;39868;53.398;6.564;2022-11-15T04:57:16;11.00;78.10
53962;DHT22;39868;53.398;6.564;2022-11-15T05:00:08;11.10;78.20
53962;DHT22;39868;53.398;6.564;2022-11-15T05:02:54;11.10;78.20
53962;DHT22;39868;53.398;6.564;2022-11-15T05:05:59;11.10;78.20
53962;DHT22;39868;53.398;6.564;2022-11-15T05:08:45;11.10;78.80
53962;DHT22;39868;53.398;6.564;2022-11-15T05:11:31;11.10;78.90
53962;DHT22;39868;53.398;6.564;2022-11-15T05:14:18;11.10;78.40
53962;DHT22;39868;53.398;6.564;2022-11-15T05:17:04;11.20;78.40
53962;DHT22;39868;53.398;6.564;2022-11-15T05:19:50;11.20;78.40
53962;DHT22;39868;53.398;6.564;2022-11-15T05:22:38;11.20;78.40
53962;DHT22;39868;53.398;6.564;2022-11-15T05:25:24;11.20;78.40
53962;DHT22;39868;53.398;6.564;2022-11-15T05:28:10;11.20;78.50
53962;DHT22;39868;53.398;6.564;2022-11-15T05:31:11;11.20;78.50
53962;DHT22;39868;53.398;6.564;2022-11-15T05:34:05;11.20;78.50
53962;DHT22;39868;53.398;6.564;2022-11-15T05:36:51;11.30;78.60
53962;DHT22;39868;53.398;6.564;2022-11-15T05:39:38;11.30;78.60
53962;DHT22;39868;53.398;6.564;2022-11-15T05:42:25;11.30;78.70
53962;DHT22;39868;53.398;6.564;2022-11-15T05:45:12;11.30;78.70
53962;DHT22;39868;53.398;6.564;2022-11-15T05:47:59;11.30;78.70
53962;DHT22;39868;53.398;6.564;2022-11-15T05:50:46;11.30;78.70
53962;DHT22;39868;53.398;6.564;2022-11-15T05:53:33;11.30;78.80
53962;DHT22;39868;53.398;6.564;2022-11-15T05:56:21;11.40;78.90
53962;DHT22;39868;53.398;6.564;2022-11-15T05:59:08;11.40;78.90
53962;DHT22;39868;53.398;6.564;2022-11-15T06:01:54;11.40;79.00
53962;DHT22;39868;53.398;6.564;2022-11-15T06:04:41;11.50;79.10
53962;DHT22;39868;53.398;6.564;2022-11-15T06:07:29;11.40;79.00
53962;DHT22;39868;53.398;6.564;2022-11-15T06:10:16;11.50;79.20
53962;DHT22;39868;53.398;6.564;2022-11-15T06:13:04;11.50;79.20
53962;DHT22;39868;53.398;6.564;2022-11-15T06:15:50;11.50;79.20
53962;DHT22;39868;53.398;6.564;2022-11-15T06:18:36;11.50;79.20
53962;DHT22;39868;53.398;6.564;2022-11-15T06:21:23;11.60;79.20
53962;DHT22;39868;53.398;6.564;2022-11-15T06:24:09;11.60;79.20
53962;DHT22;39868;53.398;6.564;2022-11-15T06:26:55;11.60;79.20
53962;DHT22;39868;53.398;6.564;2022-11-15T06:29:41;11.60;79.20
53962;DHT22;39868;53.398;6.564;2022-11-15T06:32:29;11.60;79.20
53962;DHT22;39868;53.398;6.564;2022-11-15T06:35:16;11.70;79.30
53962;DHT22;39868;53.398;6.564;2022-11-15T06:38:08;11.70;79.30
53962;DHT22;39868;53.398;6.564;2022-11-15T06:40:55;11.70;79.30
53962;DHT22;39868;53.398;6.564;2022-11-15T06:43:41;11.70;79.30
53962;DHT22;39868;53.398;6.564;2022-11-15T06:46:27;11.70;79.30
53962;DHT22;39868;53.398;6.564;2022-11-15T06:49:13;11.70;79.30
53962;DHT22;39868;53.398;6.564;2022-11-15T06:52:00;11.80;79.40
53962;DHT22;39868;53.398;6.564;2022-11-15T06:54:46;11.70;79.40
53962;DHT22;39868;53.398;6.564;2022-11-15T06:57:32;11.80;79.50
53962;DHT22;39868;53.398;6.564;2022-11-15T07:00:21;11.80;79.50
53962;DHT22;39868;53.398;6.564;2022-11-15T07:03:08;11.80;79.60
53962;DHT22;39868;53.398;6.564;2022-11-15T07:05:56;11.80;79.60
53962;DHT22;39868;53.398;6.564;2022-11-15T07:08:49;11.80;79.60
53962;DHT22;39868;53.398;6.564;2022-11-15T07:11:35;11.90;79.70
53962;DHT22;39868;53.398;6.564;2022-11-15T07:14:22;11.90;79.70
53962;DHT22;39868;53.398;6.564;2022-11-15T07:17:07;11.90;79.80
53962;DHT22;39868;53.398;6.564;2022-11-15T07:19:53;11.90;79.90
53962;DHT22;39868;53.398;6.564;2022-11-15T07:22:43;12.00;80.00
53962;DHT22;39868;53.398;6.564;2022-11-15T07:25:31;12.00;80.10
53962;DHT22;39868;53.398;6.564;2022-11-15T07:28:17;12.00;80.00
53962;DHT22;39868;53.398;6.564;2022-11-15T07:31:07;12.00;80.00
53962;DHT22;39868;53.398;6.564;2022-11-15T07:33:54;12.10;80.20
53962;DHT22;39868;53.398;6.564;2022-11-15T07:36:40;12.10;80.20
53962;DHT22;39868;53.398;6.564;2022-11-15T07:39:26;12.20;80.30
53962;DHT22;39868;53.398;6.564;2022-11-15T07:42:12;12.20;80.40
53962;DHT22;39868;53.398;6.564;2022-11-15T07:45:17;12.20;80.30
53962;DHT22;39868;53.398;6.564;2022-11-15T07:48:03;12.30;80.40
53962;DHT22;39868;53.398;6.564;2022-11-15T07:50:49;12.30;80.40
53962;DHT22;39868;53.398;6.564;2022-11-15T07:53:35;12.30;80.40
53962;DHT22;39868;53.398;6.564;2022-11-15T07:56:21;12.40;80.60
53962;DHT22;39868;53.398;6.564;2022-11-15T07:59:07;12.40;80.60
53962;DHT22;39868;53.398;6.564;2022-11-15T08:01:53;12.50;80.60
53962;DHT22;39868;53.398;6.564;2022-11-15T08:04:40;12.50;80.70
53962;DHT22;39868;53.398;6.564;2022-11-15T08:07:29;12.60;80.80
53962;DHT22;39868;53.398;6.564;2022-11-15T08:10:16;12.60;80.90
53962;DHT22;39868;53.398;6.564;2022-11-15T08:13:07;12.70;81.00
53962;DHT22;39868;53.398;6.564;2022-11-15T08:16:03;12.70;81.10
53962;DHT22;39868;53.398;6.564;2022-11-15T08:18:51;12.80;81.20
53962;DHT22;39868;53.398;6.564;2022-11-15T08:21:37;12.80;81.10
53962;DHT22;39868;53.398;6.564;2022-11-15T08:24:23;12.90;81.20
53962;DHT22;39868;53.398;6.564;2022-11-15T08:27:09;13.00;81.30
53962;DHT22;39868;53.398;6.564;2022-11-15T08:30:00;13.00;81.30
53962;DHT22;39868;53.398;6.564;2022-11-15T08:32:48;13.00;81.40
53962;DHT22;39868;53.398;6.564;2022-11-15T08:35:35;13.10;81.50
53962;DHT22;39868;53.398;6.564;2022-11-15T08:38:21;13.20;81.60
53962;DHT22;39868;53.398;6.564;2022-11-15T08:41:11;13.20;81.50
53962;DHT22;39868;53.398;6.564;2022-11-15T08:43:58;13.30;81.50
53962;DHT22;39868;53.398;6.564;2022-11-15T08:46:46;13.30;81.50
53962;DHT22;39868;53.398;6.564;2022-11-15T08:49:32;13.40;81.60
53962;DHT22;39868;53.398;6.564;2022-11-15T08:52:18;13.40;81.40
53962;DHT22;39868;53.398;6.564;2022-11-15T08:55:05;13.50;81.60
53962;DHT22;39868;53.398;6.564;2022-11-15T08:57:51;13.50;81.40
53962;DHT22;39868;53.398;6.564;2022-11-15T09:00:37;13.60;81.40
53962;DHT22;39868;53.398;6.564;2022-11-15T09:03:25;13.70;81.50
53962;DHT22;39868;53.398;6.564;2022-11-15T09:06:11;13.70;81.50
53962;DHT22;39868;53.398;6.564;2022-11-15T09:08:57;13.80;81.60
53962;DHT22;39868;53.398;6.564;2022-11-15T09:11:44;13.90;81.60
53962;DHT22;39868;53.398;6.564;2022-11-15T09:14:30;13.90;81.50
53962;DHT22;39868;53.398;6.564;2022-11-15T09:17:16;14.00;81.60
53962;DHT22;39868;53.398;6.564;2022-11-15T09:20:09;14.00;81.40
53962;DHT22;39868;53.398;6.564;2022-11-15T09:22:57;14.10;81.40
53962;DHT22;39868;53.398;6.564;2022-11-15T09:25:44;14.10;81.30
53962;DHT22;39868;53.398;6.564;2022-11-15T09:28:30;14.20;81.20
53962;DHT22;39868;53.398;6.564;2022-11-15T09:31:17;14.20;81.20
53962;DHT22;39868;53.398;6.564;2022-11-15T09:34:06;14.30;81.70
53962;DHT22;39868;53.398;6.564;2022-11-15T09:36:52;14.30;81.10
53962;DHT22;39868;53.398;6.564;2022-11-15T09:39:38;14.40;81.00
53962;DHT22;39868;53.398;6.564;2022-11-15T09:45:49;14.50;80.90
53962;DHT22;39868;53.398;6.564;2022-11-15T09:48:53;14.50;80.90
53962;DHT22;39868;53.398;6.564;2022-11-15T09:51:44;14.50;80.80
53962;DHT22;39868;53.398;6.564;2022-11-15T09:54:35;14.60;80.80
53962;DHT22;39868;53.398;6.564;2022-11-15T10:00:03;14.70;80.60
53962;DHT22;39868;53.398;6.564;2022-11-15T10:03:18;14.70;80.50
53962;DHT22;39868;53.398;6.564;2022-11-15T10:05:50;14.70;80.40
53962;DHT22;39868;53.398;6.564;2022-11-15T10:11:08;14.80;80.30
53962;DHT22;39868;53.398;6.564;2022-11-15T10:14:00;14.80;80.20
53962;DHT22;39868;53.398;6.564;2022-11-15T10:22:20;15.00;80.20
53962;DHT22;39868;53.398;6.564;2022-11-15T10:24:50;15.10;80.20
53962;DHT22;39868;53.398;6.564;2022-11-15T10:27:19;15.10;80.20
53962;DHT22;39868;53.398;6.564;2022-11-15T10:29:49;15.20;80.10
53962;DHT22;39868;53.398;6.564;2022-11-15T10:32:19;15.20;79.90
53962;DHT22;39868;53.398;6.564;2022-11-15T10:34:48;15.30;79.80
53962;DHT22;39868;53.398;6.564;2022-11-15T10:37:28;15.30;79.60
53962;DHT22;39868;53.398;6.564;2022-11-15T10:40:04;15.30;79.40
53962;DHT22;39868;53.398;6.564;2022-11-15T10:42:33;15.30;79.40
53962;DHT22;39868;53.398;6.564;2022-11-15T10:45:01;15.30;79.30
53962;DHT22;39868;53.398;6.564;2022-11-15T10:47:31;15.40;79.30
53962;DHT22;39868;53.398;6.564;2022-11-15T10:50:26;15.40;79.30
53962;DHT22;39868;53.398;6.564;2022-11-15T10:52:53;15.40;79.30
53962;DHT22;39868;53.398;6.564;2022-11-15T10:55:24;15.50;79.40
53962;DHT22;39868;53.398;6.564;2022-11-15T10:57:57;15.40;79.20
53962;DHT22;39868;53.398;6.564;2022-11-15T11:00:36;15.50;79.30
53962;DHT22;39868;53.398;6.564;2022-11-15T11:03:34;15.60;79.30
53962;DHT22;39868;53.398;6.564;2022-11-15T11:06:18;15.60;79.30
53962;DHT22;39868;53.398;6.564;2022-11-15T11:09:00;15.60;79.10
53962;DHT22;39868;53.398;6.564;2022-11-15T11:11:49;15.60;79.00
53962;DHT22;39868;53.398;6.564;2022-11-15T11:14:25;15.60;78.90
53962;DHT22;39868;53.398;6.564;2022-11-15T11:17:02;15.60;78.80
53962;DHT22;39868;53.398;6.564;2022-11-15T11:33:33;15.70;78.60
53962;DHT22;39868;53.398;6.564;2022-11-15T11:39:19;15.70;78.80
53962;DHT22;39868;53.398;6.564;2022-11-15T11:45:05;15.70;78.90
53962;DHT22;39868;53.398;6.564;2022-11-15T11:47:40;15.70;79.00
53962;DHT22;39868;53.398;6.564;2022-11-15T12:00:33;15.80;79.30
53962;DHT22;39868;53.398;6.564;2022-11-15T12:03:10;15.90;79.40
53962;DHT22;39868;53.398;6.564;2022-11-15T12:05:54;15.90;79.40
53962;DHT22;39868;53.398;6.564;2022-11-15T12:08:44;15.90;79.40
53962;DHT22;39868;53.398;6.564;2022-11-15T12:11:29;16.00;79.50
53962;DHT22;39868;53.398;6.564;2022-11-15T12:14:03;16.00;79.50
53962;DHT22;39868;53.398;6.564;2022-11-15T12:16:32;16.10;80.20
53962;DHT22;39868;53.398;6.564;2022-11-15T12:19:02;16.10;79.80
53962;DHT22;39868;53.398;6.564;2022-11-15T12:24:51;16.30;79.70
53962;DHT22;39868;53.398;6.564;2022-11-15T12:27:49;16.40;79.70
53962;DHT22;39868;53.398;6.564;2022-11-15T12:30:20;16.40;79.50
53962;DHT22;39868;53.398;6.564;2022-11-15T12:32:59;16.50;79.40
53962;DHT22;39868;53.398;6.564;2022-11-15T12:35:39;16.50;79.20
53962;DHT22;39868;53.398;6.564;2022-11-15T12:41:18;16.50;78.80
53962;DHT22;39868;53.398;6.564;2022-11-15T12:43:47;16.50;78.60
53962;DHT22;39868;53.398;6.564;2022-11-15T12:59:57;16.40;78.10
53962;DHT22;39868;53.398;6.564;2022-11-15T13:02:35;16.40;78.00
53962;DHT22;39868;53.398;6.564;2022-11-15T13:28:34;16.30;77.90
53962;DHT22;39868;53.398;6.564;2022-11-15T13:31:22;16.40;77.80
53962;DHT22;39868;53.398;6.564;2022-11-15T13:33:51;16.40;77.70
53962;DHT22;39868;53.398;6.564;2022-11-15T13:36:22;16.40;77.60
53962;DHT22;39868;53.398;6.564;2022-11-15T13:39:04;16.40;77.40
53962;DHT22;39868;53.398;6.564;2022-11-15T13:41:36;16.40;77.30
53962;DHT22;39868;53.398;6.564;2022-11-15T13:44:23;16.40;77.20
53962;DHT22;39868;53.398;6.564;2022-11-15T13:47:06;16.50;77.10
53962;DHT22;39868;53.398;6.564;2022-11-15T13:49:34;16.50;77.10
53962;DHT22;39868;53.398;6.564;2022-11-15T13:52:05;16.60;77.70
53962;DHT22;39868;53.398;6.564;2022-11-15T14:00:03;16.60;77.00
53962;DHT22;39868;53.398;6.564;2022-11-15T14:02:40;16.60;76.90
53962;DHT22;39868;53.398;6.564;2022-11-15T14:05:17;16.60;76.80
53962;DHT22;39868;53.398;6.564;2022-11-15T14:08:11;16.60;76.50
53962;DHT22;39868;53.398;6.564;2022-11-15T14:10:40;16.60;76.40
53962;DHT22;39868;53.398;6.564;2022-11-15T14:13:30;16.60;76.30
53962;DHT22;39868;53.398;6.564;2022-11-15T14:16:34;16.50;76.20
53962;DHT22;39868;53.398;6.564;2022-11-15T14:19:04;16.50;76.30
53962;DHT22;39868;53.398;6.564;2022-11-15T14:21:32;16.50;75.90
53962;DHT22;39868;53.398;6.564;2022-11-15T14:24:21;16.50;75.90
53962;DHT22;39868;53.398;6.564;2022-11-15T14:26:49;16.40;75.80
53962;DHT22;39868;53.398;6.564;2022-11-15T14:29:26;16.30;75.60
53962;DHT22;39868;53.398;6.564;2022-11-15T14:35:02;16.20;75.40
53962;DHT22;39868;53.398;6.564;2022-11-15T14:37:33;16.10;75.30
53962;DHT22;39868;53.398;6.564;2022-11-15T14:40:04;16.10;75.30
53962;DHT22;39868;53.398;6.564;2022-11-15T14:42:32;16.00;75.30
53962;DHT22;39868;53.398;6.564;2022-11-15T14:45:00;15.90;75.30
53962;DHT22;39868;53.398;6.564;2022-11-15T14:47:27;15.80;75.30
53962;DHT22;39868;53.398;6.564;2022-11-15T14:49:54;15.70;75.30
53962;DHT22;39868;53.398;6.564;2022-11-15T14:52:32;15.60;75.30
53962;DHT22;39868;53.398;6.564;2022-11-15T14:58:04;15.40;75.40
53962;DHT22;39868;53.398;6.564;2022-11-15T15:00:39;15.30;75.50
53962;DHT22;39868;53.398;6.564;2022-11-15T15:03:07;15.20;75.60
53962;DHT22;39868;53.398;6.564;2022-11-15T15:05:39;15.10;75.60
53962;DHT22;39868;53.398;6.564;2022-11-15T15:08:07;15.10;75.70
53962;DHT22;39868;53.398;6.564;2022-11-15T15:10:37;15.00;75.80
53962;DHT22;39868;53.398;6.564;2022-11-15T15:13:19;14.90;75.80
53962;DHT22;39868;53.398;6.564;2022-11-15T15:15:48;14.80;75.80
53962;DHT22;39868;53.398;6.564;2022-11-15T15:18:17;14.70;75.80
53962;DHT22;39868;53.398;6.564;2022-11-15T15:20:58;14.60;75.90
53962;DHT22;39868;53.398;6.564;2022-11-15T15:23:29;14.60;76.00
53962;DHT22;39868;53.398;6.564;2022-11-15T15:25:58;14.50;76.00
53962;DHT22;39868;53.398;6.564;2022-11-15T15:28:26;14.40;76.10
53962;DHT22;39868;53.398;6.564;2022-11-15T15:31:01;14.40;76.10
53962;DHT22;39868;53.398;6.564;2022-11-15T15:33:28;14.30;76.20
53962;DHT22;39868;53.398;6.564;2022-11-15T15:35:56;14.20;76.20
53962;DHT22;39868;53.398;6.564;2022-11-15T15:38:23;14.20;76.30
53962;DHT22;39868;53.398;6.564;2022-11-15T15:40:51;14.10;76.20
53962;DHT22;39868;53.398;6.564;2022-11-15T15:43:19;14.00;76.30
53962;DHT22;39868;53.398;6.564;2022-11-15T15:45:47;13.90;76.30
53962;DHT22;39868;53.398;6.564;2022-11-15T15:48:16;13.90;76.30
53962;DHT22;39868;53.398;6.564;2022-11-15T15:50:43;13.80;76.40
53962;DHT22;39868;53.398;6.564;2022-11-15T15:53:12;13.70;76.40
53962;DHT22;39868;53.398;6.564;2022-11-15T15:55:40;13.70;76.50
53962;DHT22;39868;53.398;6.564;2022-11-15T15:58:08;13.60;76.50
53962;DHT22;39868;53.398;6.564;2022-11-15T16:00:37;13.60;76.60
53962;DHT22;39868;53.398;6.564;2022-11-15T16:03:05;13.50;76.60
53962;DHT22;39868;53.398;6.564;2022-11-15T16:05:33;13.40;76.70
53962;DHT22;39868;53.398;6.564;2022-11-15T16:08:00;13.40;76.80
53962;DHT22;39868;53.398;6.564;2022-11-15T16:10:30;13.30;76.80
53962;DHT22;39868;53.398;6.564;2022-11-15T16:12:58;13.30;77.00
53962;DHT22;39868;53.398;6.564;2022-11-15T16:15:28;13.30;77.10
53962;DHT22;39868;53.398;6.564;2022-11-15T16:17:58;13.20;77.10
53962;DHT22;39868;53.398;6.564;2022-11-15T16:20:37;13.20;77.30
53962;DHT22;39868;53.398;6.564;2022-11-15T16:23:11;13.20;77.40
53962;DHT22;39868;53.398;6.564;2022-11-15T16:25:52;13.10;77.40
53962;DHT22;39868;53.398;6.564;2022-11-15T16:28:25;13.10;77.50
53962;DHT22;39868;53.398;6.564;2022-11-15T16:33:28;13.00;77.60
53962;DHT22;39868;53.398;6.564;2022-11-15T16:35:56;13.00;77.70
53962;DHT22;39868;53.398;6.564;2022-11-15T16:38:24;13.00;77.70
53962;DHT22;39868;53.398;6.564;2022-11-15T16:40:51;13.00;77.70
53962;DHT22;39868;53.398;6.564;2022-11-15T16:43:19;13.00;77.70
53962;DHT22;39868;53.398;6.564;2022-11-15T16:45:46;13.00;77.80
53962;DHT22;39868;53.398;6.564;2022-11-15T16:48:33;12.90;77.70
53962;DHT22;39868;53.398;6.564;2022-11-15T16:51:01;12.90;77.80
53962;DHT22;39868;53.398;6.564;2022-11-15T16:53:31;12.90;77.80
53962;DHT22;39868;53.398;6.564;2022-11-15T16:55:58;12.90;77.90
53962;DHT22;39868;53.398;6.564;2022-11-15T16:58:26;12.80;78.00
53962;DHT22;39868;53.398;6.564;2022-11-15T17:00:55;12.80;78.10
53962;DHT22;39868;53.398;6.564;2022-11-15T17:03:23;12.80;78.20
53962;DHT22;39868;53.398;6.564;2022-11-15T17:05:51;12.80;78.30
53962;DHT22;39868;53.398;6.564;2022-11-15T17:08:19;12.80;78.50
53962;DHT22;39868;53.398;6.564;2022-11-15T17:10:48;12.80;78.60
53962;DHT22;39868;53.398;6.564;2022-11-15T17:13:15;12.90;78.70
53962;DHT22;39868;53.398;6.564;2022-11-15T17:15:43;12.90;78.80
53962;DHT22;39868;53.398;6.564;2022-11-15T17:18:11;12.90;78.80
53962;DHT22;39868;53.398;6.564;2022-11-15T17:20:40;12.90;78.80
53962;DHT22;39868;53.398;6.564;2022-11-15T17:23:17;12.90;78.80
53962;DHT22;39868;53.398;6.564;2022-11-15T17:25:44;13.00;78.80
53962;DHT22;39868;53.398;6.564;2022-11-15T17:28:12;13.00;78.80
53962;DHT22;39868;53.398;6.564;2022-11-15T17:30:42;13.00;78.70
53962;DHT22;39868;53.398;6.564;2022-11-15T17:33:10;13.00;78.70
53962;DHT22;39868;53.398;6.564;2022-11-15T17:35:37;13.00;78.70
53962;DHT22;39868;53.398;6.564;2022-11-15T17:38:05;13.00;78.60
53962;DHT22;39868;53.398;6.564;2022-11-15T17:40:32;13.10;78.60
53962;DHT22;39868;53.398;6.564;2022-11-15T17:43:00;13.10;78.50
53962;DHT22;39868;53.398;6.564;2022-11-15T17:45:27;13.10;78.50
53962;DHT22;39868;53.398;6.564;2022-11-15T17:47:55;13.10;78.40
53962;DHT22;39868;53.398;6.564;2022-11-15T17:50:22;13.20;78.30
53962;DHT22;39868;53.398;6.564;2022-11-15T17:52:49;13.20;78.30
53962;DHT22;39868;53.398;6.564;2022-11-15T17:55:17;13.20;78.20
53962;DHT22;39868;53.398;6.564;2022-11-15T17:57:45;13.20;78.20
53962;DHT22;39868;53.398;6.564;2022-11-15T18:00:13;13.20;78.20
53962;DHT22;39868;53.398;6.564;2022-11-15T18:02:41;13.20;78.10
53962;DHT22;39868;53.398;6.564;2022-11-15T18:05:08;13.20;78.00
53962;DHT22;39868;53.398;6.564;2022-11-15T18:07:36;13.20;78.00
53962;DHT22;39868;53.398;6.564;2022-11-15T18:10:03;13.20;78.00
53962;DHT22;39868;53.398;6.564;2022-11-15T18:12:31;13.20;78.00
53962;DHT22;39868;53.398;6.564;2022-11-15T18:14:59;13.20;77.90
53962;DHT22;39868;53.398;6.564;2022-11-15T18:17:27;13.20;77.80
53962;DHT22;39868;53.398;6.564;2022-11-15T18:19:54;13.20;77.80
53962;DHT22;39868;53.398;6.564;2022-11-15T18:22:23;13.20;77.70
53962;DHT22;39868;53.398;6.564;2022-11-15T18:24:51;13.20;77.70
53962;DHT22;39868;53.398;6.564;2022-11-15T18:27:18;13.20;77.60
53962;DHT22;39868;53.398;6.564;2022-11-15T18:29:47;13.20;77.50
53962;DHT22;39868;53.398;6.564;2022-11-15T18:32:14;13.20;77.50
53962;DHT22;39868;53.398;6.564;2022-11-15T18:34:44;13.20;77.40
53962;DHT22;39868;53.398;6.564;2022-11-15T18:37:11;13.20;77.30
53962;DHT22;39868;53.398;6.564;2022-11-15T18:39:39;13.20;77.30
53962;DHT22;39868;53.398;6.564;2022-11-15T18:42:06;13.10;77.20
53962;DHT22;39868;53.398;6.564;2022-11-15T18:44:34;13.10;77.10
53962;DHT22;39868;53.398;6.564;2022-11-15T18:47:01;13.10;77.10
53962;DHT22;39868;53.398;6.564;2022-11-15T18:49:29;13.10;77.00
53962;DHT22;39868;53.398;6.564;2022-11-15T18:51:57;13.10;77.00
53962;DHT22;39868;53.398;6.564;2022-11-15T18:54:24;13.10;77.00
53962;DHT22;39868;53.398;6.564;2022-11-15T18:56:57;13.00;76.90
53962;DHT22;39868;53.398;6.564;2022-11-15T18:59:25;13.00;76.90
53962;DHT22;39868;53.398;6.564;2022-11-15T19:01:54;13.00;76.90
53962;DHT22;39868;53.398;6.564;2022-11-15T19:04:22;13.00;76.80
53962;DHT22;39868;53.398;6.564;2022-11-15T19:06:49;13.00;76.80
53962;DHT22;39868;53.398;6.564;2022-11-15T19:09:18;12.90;76.80
53962;DHT22;39868;53.398;6.564;2022-11-15T19:11:47;12.90;76.70
53962;DHT22;39868;53.398;6.564;2022-11-15T19:14:17;12.90;76.70
53962;DHT22;39868;53.398;6.564;2022-11-15T19:16:47;12.90;76.70
53962;DHT22;39868;53.398;6.564;2022-11-15T19:19:25;12.80;76.80